Time;durP1;ratioP1;P1;durP2;ratioP2;P2;SDS_P1;SDS_P2;PMS_P1;PMS_P2;Temp;Humidity;BMP_temperature;BMP_pressure;BME280_temperature;BME280_humidity;BME280_pressure;Samples;Min_cycle;Max_cycle;Signal;HPM_P1;HPM_P2
2023/08/18 00:01:55;;;;;;;2.20;1.77;;;;;;;;;;5052591;28;20139;-31
2023/08/18 00:04:21;;;;;;;2.67;2.05;;;22.00;86.30;;;;;;5053628;28;20314;-30
2023/08/18 00:06:48;;;;;;;2.40;1.83;;;21.10;78.10;;;;;;5069531;28;20131;-31
2023/08/18 00:09:15;;;;;;;2.03;1.50;;;;;;;;;;5072231;28;20101;-30
2023/08/18 00:11:42;;;;;;;2.00;1.75;;;;;;;;;;5072737;28;20135;-35
2023/08/18 00:14:09;;;;;;;2.63;1.70;;;20.00;85.20;;;;;;5072166;28;20083;-30
2023/08/18 00:16:37;;;;;;;2.03;1.70;;;21.70;75.10;;;;;;5072709;28;20223;-31
2023/08/18 00:19:04;;;;;;;2.20;1.65;;;;;;;;;;5070097;28;20573;-32
2023/08/18 00:21:31;;;;;;;1.98;1.67;;;20.80;85.70;;;;;;5052579;28;20136;-32
2023/08/18 00:23:58;;;;;;;2.08;1.50;;;20.50;86.40;;;;;;5052191;28;20049;-31
2023/08/18 00:26:25;;;;;;;1.55;1.45;;;;;;;;;;5052492;28;20128;-35
2023/08/18 00:28:51;;;;;;;1.90;1.70;;;22.20;79.80;;;;;;5067223;28;20128;-30
2023/08/18 00:31:18;;;;;;;2.50;1.80;;;;;;;;;;5071829;28;20131;-30
2023/08/18 00:33:46;;;;;;;1.98;1.77;;;21.20;82.20;;;;;;5071964;28;20417;-31
2023/08/18 00:36:13;;;;;;;2.25;1.67;;;20.40;79.40;;;;;;5067867;28;20119;-35
2023/08/18 00:38:40;;;;;;;3.65;1.70;;;20.80;86.00;;;;;;5071897;28;20524;-30
2023/08/18 00:41:06;;;;;;;1.92;1.60;;;21.00;72.80;;;;;;5071629;28;20139;-36
2023/08/18 00:43:33;;;;;;;2.60;1.80;;;19.90;72.40;;;;;;5071478;28;20477;-38
2023/08/18 00:46:00;;;;;;;4.03;1.70;;;21.40;86.30;;;;;;5072031;28;20123;-36
2023/08/18 00:48:27;;;;;;;2.92;2.00;;;21.50;86.80;;;;;;5071639;28;20127;-36
2023/08/18 00:50:55;;;;;;;2.10;1.70;;;21.20;69.10;;;;;;5071466;28;20553;-35
2023/08/18 00:53:22;;;;;;;2.20;1.67;;;;;;;;;;5061177;28;20136;-35
2023/08/18 00:55:48;;;;;;;2.00;1.60;;;20.20;81.40;;;;;;5051847;28;20135;-39
2023/08/18 00:58:15;;;;;;;2.65;1.90;;;20.50;73.60;;;;;;5051661;28;20274;-35
2023/08/18 01:00:42;;;;;;;1.88;1.60;;;20.90;75.70;;;;;;5051253;28;20139;-36
2023/08/18 01:03:09;;;;;;;1.90;1.52;;;;;;;;;;5069059;28;20131;-36
2023/08/18 01:05:36;;;;;;;2.28;1.83;;;;;;;;;;5071536;28;20128;-33
2023/08/18 01:08:05;;;;;;;2.17;1.70;;;21.00;68.80;;;;;;5071665;28;20091;-38
2023/08/18 01:10:32;;;;;;;2.22;1.70;;;20.70;70.70;;;;;;5054457;28;20049;-39
2023/08/18 01:13:02;;;;;;;2.38;1.70;;;20.90;73.80;;;;;;5051458;28;20125;-36
2023/08/18 01:15:32;;;;;;;2.67;1.73;;;20.80;85.70;;;;;;5051853;28;20140;-37
2023/08/18 01:18:01;;;;;;;2.00;1.63;;;20.70;85.70;;;;;;5061488;28;20128;-36
2023/08/18 01:20:27;;;;;;;2.13;1.60;;;21.10;86.40;;;;;;5071098;28;20044;-36
2023/08/18 01:22:56;;;;;;;2.70;1.95;;;21.00;68.90;;;;;;5070735;28;20137;-34
2023/08/18 01:25:23;;;;;;;2.28;1.58;;;20.50;83.80;;;;;;5068288;28;20140;-37
2023/08/18 01:27:49;;;;;;;2.28;1.70;;;20.10;76.60;;;;;;5051278;28;20144;-39
2023/08/18 01:30:17;;;;;;;2.28;1.60;;;22.20;86.50;;;;;;5051248;28;20131;-38
2023/08/18 01:32:45;;;;;;;2.22;1.80;;;21.00;86.70;;;;;;5050870;28;20395;-37
2023/08/18 01:35:12;;;;;;;1.52;1.40;;;;;;;;;;5051023;28;20053;-36
2023/08/18 01:37:39;;;;;;;2.60;1.70;;;21.40;74.90;;;;;;5065365;28;20123;-36
2023/08/18 01:40:08;;;;;;;1.90;1.67;;;21.40;86.40;;;;;;5071017;28;20557;-38
2023/08/18 01:42:35;;;;;;;2.10;1.70;;;21.80;73.40;;;;;;5064538;28;20128;-37
2023/08/18 01:45:02;;;;;;;2.10;1.70;;;21.00;86.30;;;;;;5061370;28;20128;-36
2023/08/18 01:47:29;;;;;;;1.95;1.60;;;21.10;75.10;;;;;;5059052;28;20045;-36
2023/08/18 01:49:56;;;;;;;1.90;1.45;;;21.20;68.90;;;;;;5061240;28;20132;-37
2023/08/18 01:52:24;;;;;;;2.00;1.50;;;;;;;;;;5060691;28;20108;-34
2023/08/18 01:54:51;;;;;;;2.15;1.45;;;21.00;68.80;;;;;;5059524;28;20124;-38
2023/08/18 01:57:19;;;;;;;2.03;1.60;;;20.00;85.60;;;;;;5060932;28;20132;-35
2023/08/18 01:59:47;;;;;;;3.28;1.75;;;;;;;;;;5060630;28;20116;-38
2023/08/18 02:02:14;;;;;;;2.78;1.73;;;;;;;;;;5057552;28;20145;-33
2023/08/18 02:04:40;;;;;;;1.67;1.50;;;21.50;86.00;;;;;;5058485;28;20120;-37
2023/08/18 02:07:07;;;;;;;1.83;1.60;;;;;;;;;;5061167;28;21544;-34
2023/08/18 02:09:34;;;;;;;2.15;1.65;;;;;;;;;;5059590;28;20128;-37
2023/08/18 02:12:02;;;;;;;1.70;1.58;;;;;;;;;;5059792;28;20744;-33
2023/08/18 02:14:30;;;;;;;1.67;1.40;;;21.00;68.80;;;;;;5059138;28;20041;-35
2023/08/18 02:16:57;;;;;;;2.05;1.60;;;20.90;72.00;;;;;;5058723;28;20123;-37
2023/08/18 02:19:24;;;;;;;1.70;1.60;;;;;;;;;;5069150;28;20137;-36
2023/08/18 02:21:51;;;;;;;3.38;1.70;;;;;;;;;;5070643;28;20128;-36
2023/08/18 02:24:18;;;;;;;1.52;1.40;;;21.80;79.50;;;;;;5070219;28;20128;-35
2023/08/18 02:26:44;;;;;;;2.55;1.48;;;19.80;72.40;;;;;;5070670;28;20497;-35
2023/08/18 02:29:11;;;;;;;2.38;1.73;;;;;;;;;;5070520;28;20132;-35
2023/08/18 02:31:39;;;;;;;2.05;1.60;;;21.50;69.00;;;;;;5068447;28;20132;-36
2023/08/18 02:34:07;;;;;;;2.38;1.70;;;;;;;;;;5070544;28;20072;-35
2023/08/18 02:36:34;;;;;;;2.90;1.52;;;21.90;86.20;;;;;;5070089;28;20053;-38
2023/08/18 02:39:02;;;;;;;2.33;1.50;;;;;;;;;;5070401;28;20128;-34
2023/08/18 02:41:29;;;;;;;2.30;1.50;;;;;;;;;;5070205;28;20114;-37
2023/08/18 02:43:55;;;;;;;1.98;1.50;;;20.60;86.30;;;;;;5069967;28;20136;-36
2023/08/18 02:46:22;;;;;;;1.83;1.40;;;20.90;86.50;;;;;;5070775;28;20127;-35
2023/08/18 02:48:50;;;;;;;1.95;1.60;;;21.00;68.80;;;;;;5066681;28;20514;-35
2023/08/18 02:51:17;;;;;;;3.80;1.70;;;;;;;;;;5070164;28;20131;-35
2023/08/18 02:53:48;;;;;;;1.55;1.45;;;;;;;;;;5069730;28;20132;-36
2023/08/18 02:56:15;;;;;;;2.28;1.52;;;;;;;;;;5070620;28;20060;-38
2023/08/18 02:58:42;;;;;;;1.70;1.35;;;;;;;;;;5069963;28;20040;-34
2023/08/18 03:01:09;;;;;;;1.73;1.40;;;;;;;;;;5070450;28;20132;-36
2023/08/18 03:03:36;;;;;;;2.42;1.60;;;21.10;85.70;;;;;;5067266;28;20555;-37
2023/08/18 03:06:05;;;;;;;1.52;1.27;;;20.00;85.40;;;;;;5050263;28;20128;-35
2023/08/18 03:08:32;;;;;;;2.00;1.50;;;;;;;;;;5050006;28;20124;-36
2023/08/18 03:11:00;;;;;;;1.83;1.42;;;21.20;72.90;;;;;;5050062;28;20049;-36
2023/08/18 03:13:27;;;;;;;3.30;1.60;;;20.70;78.40;;;;;;5051746;28;20132;-40
2023/08/18 03:15:53;;;;;;;2.08;1.55;;;21.80;81.10;;;;;;5053809;28;20132;-38
2023/08/18 03:18:20;;;;;;;2.22;1.40;;;21.50;73.70;;;;;;5053591;28;20553;-32
2023/08/18 03:20:47;;;;;;;2.10;1.52;;;20.90;71.40;;;;;;5054541;28;20136;-36
2023/08/18 03:23:15;;;;;;;2.15;1.80;;;20.70;68.80;;;;;;5053119;28;20049;-37
2023/08/18 03:25:43;;;;;;;1.60;1.50;;;;;;;;;;5053236;28;20076;-37
2023/08/18 03:28:10;;;;;;;1.40;1.30;;;21.20;86.10;;;;;;5053381;28;20053;-38
2023/08/18 03:30:37;;;;;;;2.95;1.67;;;22.00;86.50;;;;;;5053313;28;20133;-39
2023/08/18 03:33:05;;;;;;;2.17;1.58;;;;;;;;;;5053073;28;20148;-33
2023/08/18 03:35:32;;;;;;;1.65;1.48;;;21.00;86.00;;;;;;5053073;28;20564;-36
2023/08/18 03:37:59;;;;;;;2.30;1.40;;;;;;;;;;5057958;28;20049;-33
2023/08/18 03:40:27;;;;;;;2.33;1.50;;;21.10;86.10;;;;;;5067565;28;20049;-39
2023/08/18 03:42:54;;;;;;;2.00;1.60;;;21.30;86.60;;;;;;5072859;28;20568;-38
2023/08/18 03:45:21;;;;;;;2.10;1.58;;;;;;;;;;5073229;28;20127;-36
2023/08/18 03:47:47;;;;;;;1.73;1.45;;;20.50;85.70;;;;;;5073277;28;20136;-36
2023/08/18 03:50:15;;;;;;;2.10;1.67;;;;;;;;;;5072864;28;20140;-39
2023/08/18 03:52:41;;;;;;;1.90;1.50;;;20.70;82.80;;;;;;5072547;28;20131;-37
2023/08/18 03:55:09;;;;;;;1.67;1.48;;;20.90;68.90;;;;;;5058899;28;20050;-36
2023/08/18 03:57:37;;;;;;;1.70;1.40;;;20.80;86.30;;;;;;5072770;28;20459;-39
2023/08/18 04:00:04;;;;;;;1.88;1.48;;;20.40;85.70;;;;;;5072948;28;20140;-31
2023/08/18 04:02:31;;;;;;;2.03;1.60;;;;;;;;;;5072068;28;20166;-34
2023/08/18 04:04:58;;;;;;;2.38;1.60;;;20.50;86.10;;;;;;5063226;28;20140;-31
2023/08/18 04:07:25;;;;;;;1.95;1.50;;;20.50;86.20;;;;;;5052628;28;20128;-30
2023/08/18 04:09:52;;;;;;;2.00;1.40;;;;;;;;;;5053186;28;20055;-33
2023/08/18 04:12:18;;;;;;;1.70;1.40;;;20.70;85.90;;;;;;5052189;28;20132;-31
2023/08/18 04:14:47;;;;;;;1.67;1.48;;;20.80;76.40;;;;;;5052515;28;20045;-31
2023/08/18 04:17:14;;;;;;;1.70;1.50;;;;;;;;;;5052588;28;20132;-32
2023/08/18 04:19:41;;;;;;;1.55;1.40;;;21.10;79.30;;;;;;5066300;28;20123;-31
2023/08/18 04:22:08;;;;;;;2.20;1.55;;;;;;;;;;5072101;28;20140;-34
2023/08/18 04:24:35;;;;;;;1.58;1.40;;;;;;;;;;5071742;28;20127;-31
2023/08/18 04:27:02;;;;;;;2.10;1.67;;;;;;;;;;5072375;28;20589;-34
2023/08/18 04:29:29;;;;;;;1.90;1.67;;;21.20;86.70;;;;;;5072485;28;20044;-31
2023/08/18 04:31:57;;;;;;;2.00;1.60;;;20.80;69.00;;;;;;5072143;28;20144;-34
2023/08/18 04:34:24;;;;;;;2.92;1.90;;;;;;;;;;5067933;28;20080;-36
2023/08/18 04:36:51;;;;;;;1.98;1.70;;;20.80;86.30;;;;;;5059949;28;20553;-31
2023/08/18 04:39:18;;;;;;;1.83;1.58;;;;;;;;;;5071872;28;20446;-32
2023/08/18 04:41:45;;;;;;;1.83;1.60;;;20.80;79.20;;;;;;5071847;28;20110;-34
2023/08/18 04:44:11;;;;;;;1.60;1.50;;;20.90;86.50;;;;;;5071793;28;20119;-31
2023/08/18 04:46:38;;;;;;;1.55;1.42;;;20.40;85.90;;;;;;5071830;28;20127;-31
2023/08/18 04:49:06;;;;;;;2.25;1.77;;;21.20;77.00;;;;;;5072060;28;20127;-31
2023/08/18 04:51:33;;;;;;;1.95;1.70;;;;;;;;;;5070782;28;20053;-34
2023/08/18 04:54:00;;;;;;;2.20;1.75;;;21.90;87.10;;;;;;5071727;28;20135;-31
2023/08/18 04:56:27;;;;;;;1.90;1.70;;;;;;;;;;5071456;28;20475;-35
2023/08/18 04:58:54;;;;;;;2.00;1.80;;;20.50;86.10;;;;;;5071551;28;20059;-31
2023/08/18 05:01:21;;;;;;;2.25;1.65;;;;;;;;;;5071640;28;20090;-34
2023/08/18 05:03:48;;;;;;;2.00;1.80;;;21.00;82.60;;;;;;5071497;28;20048;-33
2023/08/18 05:06:16;;;;;;;2.05;1.60;;;20.80;69.10;;;;;;5069454;28;20127;-34
2023/08/18 05:08:44;;;;;;;2.08;1.60;;;;;;;;;;5071151;28;20076;-33
2023/08/18 05:11:11;;;;;;;1.73;1.50;;;20.80;86.60;;;;;;5071461;28;20044;-32
2023/08/18 05:13:40;;;;;;;2.15;1.50;;;20.80;69.10;;;;;;5071231;28;20239;-34
2023/08/18 05:16:07;;;;;;;1.90;1.60;;;;;;;;;;5071327;28;20123;-33
2023/08/18 05:18:34;;;;;;;2.10;1.70;;;20.00;85.80;;;;;;5071306;28;20565;-31
2023/08/18 05:21:02;;;;;;;1.65;1.50;;;;;;;;;;5059556;28;20053;-32
2023/08/18 05:23:30;;;;;;;2.10;1.60;;;20.40;82.10;;;;;;5050951;28;20439;-31
2023/08/18 05:25:57;;;;;;;2.35;1.75;;;21.30;86.90;;;;;;5051287;28;20144;-30
2023/08/18 05:28:24;;;;;;;2.08;1.63;;;;;;;;;;5051141;28;20057;-31
2023/08/18 05:30:51;;;;;;;1.92;1.60;;;20.10;86.00;;;;;;5051018;28;20574;-32
2023/08/18 05:33:18;;;;;;;1.98;1.50;;;21.10;77.30;;;;;;5050804;28;20056;-31
2023/08/18 05:35:45;;;;;;;1.90;1.70;;;20.90;87.20;;;;;;5050674;28;20131;-32
2023/08/18 05:38:14;;;;;;;2.33;1.75;;;20.70;86.80;;;;;;5053667;28;20056;-31
2023/08/18 05:40:43;;;;;;;2.55;1.50;;;21.00;80.40;;;;;;5053719;28;20056;-31
2023/08/18 05:43:10;;;;;;;2.38;1.60;;;21.40;73.50;;;;;;5053312;28;20143;-31
2023/08/18 05:45:37;;;;;;;2.22;1.63;;;20.60;76.00;;;;;;5065795;28;20124;-31
2023/08/18 05:48:04;;;;;;;2.10;1.60;;;20.80;69.20;;;;;;5064809;28;20045;-31
2023/08/18 05:50:31;;;;;;;2.00;1.63;;;20.00;81.00;;;;;;5053132;28;20056;-31
2023/08/18 05:52:58;;;;;;;2.28;1.80;;;;;;;;;;5051916;28;20129;-31
2023/08/18 05:55:25;;;;;;;2.08;1.80;;;;;;;;;;5051763;28;20128;-31
2023/08/18 05:57:53;;;;;;;2.13;1.70;;;20.40;86.50;;;;;;5050796;28;20049;-30
2023/08/18 06:00:20;;;;;;;2.83;1.58;;;21.70;72.00;;;;;;5053270;28;20128;-31
2023/08/18 06:02:47;;;;;;;1.83;1.50;;;;;;;;;;5060311;28;20124;-33
2023/08/18 06:05:14;;;;;;;2.85;1.58;;;21.10;86.80;;;;;;5059389;28;20136;-32
2023/08/18 06:07:41;;;;;;;2.15;1.42;;;;;;;;;;5061077;28;20124;-31
2023/08/18 06:10:09;;;;;;;2.28;1.67;;;20.80;86.60;;;;;;5058340;28;20120;-31
2023/08/18 06:12:37;;;;;;;2.35;1.67;;;;;;;;;;5060148;28;20050;-30
2023/08/18 06:15:07;;;;;;;1.90;1.70;;;20.80;69.10;;;;;;5052302;28;20079;-32
2023/08/18 06:17:34;;;;;;;2.10;1.50;;;;;;;;;;5052983;28;20044;-34
2023/08/18 06:20:01;;;;;;;1.80;1.60;;;20.50;86.50;;;;;;5058448;28;20120;-31
2023/08/18 06:22:28;;;;;;;1.98;1.58;;;;;;;;;;5050124;28;20124;-34
2023/08/18 06:24:55;;;;;;;2.47;1.67;;;;;;;;;;5053062;28;20052;-31
2023/08/18 06:27:22;;;;;;;1.98;1.50;;;;;;;;;;5057264;28;20116;-32
2023/08/18 06:29:49;;;;;;;2.05;1.50;;;20.30;86.40;;;;;;5050785;28;20132;-31
2023/08/18 06:32:17;;;;;;;1.50;1.40;;;20.50;86.50;;;;;;5050296;28;20144;-31
2023/08/18 06:34:43;;;;;;;2.47;1.70;;;20.50;86.50;;;;;;5050476;28;20084;-32
2023/08/18 06:37:10;;;;;;;1.65;1.50;;;;;;;;;;5061533;28;20120;-32
2023/08/18 06:39:37;;;;;;;1.65;1.48;;;20.50;86.10;;;;;;5065371;28;20132;-31
2023/08/18 06:42:04;;;;;;;2.15;1.50;;;;;;;;;;5070015;28;20123;-36
2023/08/18 06:44:32;;;;;;;2.05;1.50;;;;;;;;;;5070513;28;20128;-30
2023/08/18 06:46:59;;;;;;;2.45;1.67;;;20.90;86.30;;;;;;5071939;28;20405;-31
2023/08/18 06:49:27;;;;;;;2.65;1.55;;;20.90;86.20;;;;;;5074315;28;20132;-30
2023/08/18 06:51:54;;;;;;;1.95;1.58;;;21.50;74.80;;;;;;5073067;28;20155;-31
2023/08/18 06:54:21;;;;;;;1.90;1.33;;;21.20;74.00;;;;;;5064218;28;20462;-31
2023/08/18 06:56:47;;;;;;;1.67;1.40;;;20.80;86.20;;;;;;5059183;28;20119;-31
2023/08/18 06:59:14;;;;;;;2.15;1.60;;;;;;;;;;5060599;28;20609;-35
2023/08/18 07:01:41;;;;;;;2.65;1.50;;;20.60;84.30;;;;;;5063934;28;20124;-38
2023/08/18 07:04:08;;;;;;;2.60;1.67;;;19.90;86.10;;;;;;5066401;28;20492;-39
2023/08/18 07:06:36;;;;;;;3.13;1.52;;;20.80;69.10;;;;;;5067243;28;20131;-36
2023/08/18 07:09:04;;;;;;;1.80;1.40;;;20.50;86.10;;;;;;5053993;28;20147;-36
2023/08/18 07:11:31;;;;;;;2.25;1.45;;;21.00;86.40;;;;;;5059478;28;20041;-37
2023/08/18 07:13:57;;;;;;;1.95;1.50;;;20.60;83.30;;;;;;5059752;28;20076;-36
2023/08/18 07:16:24;;;;;;;1.67;1.27;;;21.00;86.90;;;;;;5053912;28;20137;-38
2023/08/18 07:18:51;;;;;;;2.28;1.50;;;21.90;78.80;;;;;;5053488;28;20417;-36
2023/08/18 07:21:18;;;;;;;1.92;1.40;;;21.40;86.70;;;;;;5053088;28;20124;-38
2023/08/18 07:23:46;;;;;;;2.25;1.42;;;20.20;86.50;;;;;;5053347;28;20462;-36
2023/08/18 07:26:13;;;;;;;1.40;1.27;;;20.70;86.80;;;;;;5053827;28;20147;-36
2023/08/18 07:28:40;;;;;;;1.92;1.30;;;;;;;;;;5063251;28;20094;-36
2023/08/18 07:31:07;;;;;;;2.30;1.50;;;21.20;87.50;;;;;;5062278;28;20120;-39
2023/08/18 07:33:34;;;;;;;3.47;1.70;;;20.90;79.80;;;;;;5055892;28;20075;-36
2023/08/18 07:36:01;;;;;;;2.25;1.33;;;20.60;86.50;;;;;;5062940;28;20064;-39
2023/08/18 07:38:29;;;;;;;2.67;1.65;;;;;;;;;;5073029;28;20131;-36
2023/08/18 07:40:57;;;;;;;2.20;1.45;;;20.90;71.60;;;;;;5073296;28;20049;-35
2023/08/18 07:43:24;;;;;;;2.33;1.70;;;;;;;;;;5073180;28;20131;-37
2023/08/18 07:45:51;;;;;;;2.08;1.42;;;20.80;86.80;;;;;;5071761;28;20464;-35
2023/08/18 07:48:18;;;;;;;2.97;1.50;;;19.90;86.20;;;;;;5072956;28;20127;-39
2023/08/18 07:50:45;;;;;;;2.15;1.52;;;;;;;;;;5073077;28;20053;-37
2023/08/18 07:53:12;;;;;;;2.35;1.48;;;20.60;86.90;;;;;;5072969;28;20050;-36
2023/08/18 07:55:38;;;;;;;2.20;1.63;;;20.70;73.80;;;;;;5073235;28;20553;-38
2023/08/18 07:58:06;;;;;;;1.92;1.50;;;20.50;79.90;;;;;;5072089;28;20128;-36
2023/08/18 08:00:33;;;;;;;2.22;1.42;;;21.10;87.00;;;;;;5062221;28;20124;-32
2023/08/18 08:03:00;;;;;;;1.95;1.42;;;20.70;87.40;;;;;;5052274;28;20135;-31
2023/08/18 08:05:27;;;;;;;3.10;1.90;;;;;;;;;;5051595;28;20132;-36
2023/08/18 08:07:54;;;;;;;2.40;1.65;;;;;;;;;;5052019;28;20131;-31
2023/08/18 08:10:21;;;;;;;3.17;1.42;;;20.80;83.80;;;;;;5051665;28;20056;-35
2023/08/18 08:12:49;;;;;;;2.42;1.50;;;21.10;87.20;;;;;;5051511;28;20132;-31
2023/08/18 08:15:17;;;;;;;6.30;1.60;;;22.10;83.50;;;;;;5051762;28;20425;-31
2023/08/18 08:17:44;;;;;;;2.25;1.60;;;20.90;86.70;;;;;;5053412;28;20128;-31
2023/08/18 08:20:15;;;;;;;2.67;1.60;;;20.30;69.40;;;;;;5052343;28;20479;-36
2023/08/18 08:22:42;;;;;;;3.78;1.58;;;20.80;86.90;;;;;;5052083;28;20095;-39
2023/08/18 08:25:09;;;;;;;2.08;1.50;;;20.90;69.60;;;;;;5052417;28;20132;-31
2023/08/18 08:27:36;;;;;;;1.90;1.50;;;21.80;87.50;;;;;;5055866;28;20060;-35
2023/08/18 08:30:03;;;;;;;3.40;1.42;;;;;;;;;;5062985;28;20481;-36
2023/08/18 08:32:31;;;;;;;2.25;1.38;;;22.10;70.20;;;;;;5072078;28;20076;-36
2023/08/18 08:34:58;;;;;;;2.65;1.50;;;21.30;87.20;;;;;;5071635;28;20132;-37
2023/08/18 08:37:25;;;;;;;5.03;1.52;;;21.20;86.90;;;;;;5071850;28;20251;-31
2023/08/18 08:39:52;;;;;;;3.45;1.70;;;;;;;;;;5071473;28;20131;-34
2023/08/18 08:42:19;;;;;;;1.33;1.23;;;21.10;87.00;;;;;;5052416;28;20562;-30
2023/08/18 08:44:45;;;;;;;3.33;1.65;;;20.90;86.30;;;;;;5059461;28;20135;-32
2023/08/18 08:47:12;;;;;;;2.72;1.60;;;20.80;78.70;;;;;;5071824;28;20131;-31
2023/08/18 08:49:42;;;;;;;2.08;1.50;;;20.80;87.20;;;;;;5061281;28;20127;-29
2023/08/18 08:52:13;;;;;;;4.75;1.73;;;20.70;86.30;;;;;;5059573;28;20145;-30
2023/08/18 08:54:40;;;;;;;2.40;1.60;;;;;;;;;;5061232;28;20079;-36
2023/08/18 08:57:07;;;;;;;2.35;1.52;;;21.00;86.80;;;;;;5062184;28;20130;-31
2023/08/18 08:59:34;;;;;;;2.47;1.60;;;21.10;86.80;;;;;;5060663;28;20144;-32
2023/08/18 09:02:01;;;;;;;2.97;1.70;;;19.90;78.30;;;;;;5061089;28;20135;-31
2023/08/18 09:04:28;;;;;;;5.38;1.80;;;21.10;86.50;;;;;;5061839;28;20131;-31
2023/08/18 09:06:57;;;;;;;3.35;1.52;;;20.90;75.20;;;;;;5059448;28;20072;-33
2023/08/18 09:09:24;;;;;;;2.97;1.80;;;20.20;86.00;;;;;;5056562;28;20196;-31
2023/08/18 09:11:51;;;;;;;4.68;1.60;;;20.90;86.70;;;;;;5050674;28;20124;-31
2023/08/18 09:14:18;;;;;;;2.97;1.63;;;21.70;70.40;;;;;;5051854;28;20491;-31
2023/08/18 09:16:45;;;;;;;2.00;1.52;;;;;;;;;;5051223;28;20136;-36
2023/08/18 09:19:12;;;;;;;2.75;1.70;;;21.00;69.50;;;;;;5051674;28;20127;-34
2023/08/18 09:21:39;;;;;;;3.65;1.70;;;;;;;;;;5061547;28;20052;-35
2023/08/18 09:24:08;;;;;;;3.47;1.90;;;21.00;86.50;;;;;;5058978;28;20048;-38
2023/08/18 09:26:35;;;;;;;2.42;1.77;;;20.40;74.00;;;;;;5059871;28;20677;-38
2023/08/18 09:29:02;;;;;;;2.80;1.63;;;;;;;;;;5068166;28;20139;-36
2023/08/18 09:31:29;;;;;;;3.88;1.70;;;21.00;69.50;;;;;;5071023;28;20084;-37
2023/08/18 09:33:56;;;;;;;2.33;1.63;;;20.40;83.70;;;;;;5071050;28;20087;-36
2023/08/18 09:36:23;;;;;;;2.05;1.50;;;;;;;;;;5070816;28;20162;-36
2023/08/18 09:38:50;;;;;;;3.72;1.50;;;21.80;79.30;;;;;;5070104;28;20147;-38
2023/08/18 09:41:18;;;;;;;2.70;1.77;;;21.00;86.30;;;;;;5051105;28;20053;-36
2023/08/18 09:43:45;;;;;;;2.65;1.80;;;21.10;86.40;;;;;;5050915;28;20124;-37
2023/08/18 09:46:12;;;;;;;4.05;1.70;;;;;;;;;;5070460;28;20123;-35
2023/08/18 09:48:39;;;;;;;2.55;1.55;;;;;;;;;;5070893;28;20231;-32
2023/08/18 09:51:07;;;;;;;2.13;1.73;;;20.90;71.80;;;;;;5071069;28;20124;-32
2023/08/18 09:53:34;;;;;;;3.05;1.85;;;;;;;;;;5070859;28;20091;-35
2023/08/18 09:56:04;;;;;;;2.33;1.50;;;20.80;75.30;;;;;;5069225;28;20129;-35
2023/08/18 09:58:36;;;;;;;3.72;1.58;;;20.40;86.10;;;;;;5070993;28;20045;-37
2023/08/18 10:01:04;;;;;;;2.28;1.60;;;20.90;80.30;;;;;;5070688;28;20124;-34
2023/08/18 10:03:31;;;;;;;2.13;1.48;;;21.20;69.30;;;;;;5064687;28;20053;-34
2023/08/18 10:05:58;;;;;;;2.53;1.70;;;;;;;;;;5059801;28;20067;-39
2023/08/18 10:08:25;;;;;;;2.42;1.70;;;22.10;77.90;;;;;;5060094;28;20120;-37
2023/08/18 10:10:52;;;;;;;2.40;1.73;;;;;;;;;;5061434;28;20123;-36
2023/08/18 10:13:19;;;;;;;2.08;1.58;;;20.70;80.60;;;;;;5057487;28;20120;-36
2023/08/18 10:15:47;;;;;;;2.47;1.67;;;21.30;69.30;;;;;;5055839;28;20116;-35
2023/08/18 10:18:14;;;;;;;5.13;1.70;;;;;;;;;;5065018;28;20076;-36
2023/08/18 10:20:50;;;;;;;1.70;1.40;;;21.20;69.10;;;;;;5060706;28;20086;-36
2023/08/18 10:23:17;;;;;;;4.28;1.70;;;20.70;73.50;;;;;;5067466;28;20474;-37
2023/08/18 10:25:44;;;;;;;3.15;1.50;;;21.00;85.80;;;;;;5066007;28;20128;-37
2023/08/18 10:28:13;;;;;;;2.65;1.65;;;21.50;73.10;;;;;;5064312;28;20056;-38
2023/08/18 10:30:39;;;;;;;2.08;1.60;;;21.70;77.20;;;;;;5063094;28;20037;-35
2023/08/18 10:33:08;;;;;;;2.40;1.60;;;21.10;85.90;;;;;;5063287;28;20120;-35
2023/08/18 10:35:39;;;;;;;1.50;1.30;;;21.30;69.20;;;;;;5065302;28;20044;-35
2023/08/18 10:38:06;;;;;;;3.55;1.60;;;;;;;;;;5058100;28;20044;-36
2023/08/18 10:40:34;;;;;;;2.50;1.63;;;21.30;86.00;;;;;;5058491;28;20495;-40
2023/08/18 10:43:03;;;;;;;2.20;1.50;;;20.80;86.00;;;;;;5054368;28;20064;-39
2023/08/18 10:45:30;;;;;;;2.28;1.58;;;;;;;;;;5062243;28;20128;-35
2023/08/18 10:48:01;;;;;;;3.25;1.45;;;21.40;68.90;;;;;;5068624;28;20123;-38
2023/08/18 10:50:30;;;;;;;2.13;1.60;;;21.40;68.90;;;;;;5073989;28;20476;-36
2023/08/18 10:52:57;;;;;;;4.57;1.85;;;22.20;76.30;;;;;;5073875;28;20136;-37
2023/08/18 10:55:24;;;;;;;1.65;1.50;;;22.40;83.40;;;;;;5074498;28;20045;-32
2023/08/18 10:57:51;;;;;;;3.92;1.70;;;21.90;80.80;;;;;;5074119;28;20124;-37
2023/08/18 11:00:19;;;;;;;3.72;1.60;;;21.40;73.00;;;;;;5073698;28;20791;-38
2023/08/18 11:02:45;;;;;;;1.95;1.55;;;22.70;86.10;;;;;;5072247;28;20052;-36
2023/08/18 11:05:12;;;;;;;1.83;1.60;;;;;;;;;;5061516;28;20438;-34
2023/08/18 11:07:40;;;;;;;3.13;1.60;;;22.40;85.70;;;;;;5053656;28;20474;-35
2023/08/18 11:10:15;;;;;;;3.75;1.70;;;21.70;85.60;;;;;;5053566;28;20135;-35
2023/08/18 11:12:42;;;;;;;2.28;1.85;;;;;;;;;;5053606;28;20049;-35
2023/08/18 11:15:09;;;;;;;2.17;1.63;;;22.10;85.60;;;;;;5066786;28;20480;-38
2023/08/18 11:17:36;;;;;;;4.47;1.73;;;;;;;;;;5073732;28;20049;-36
2023/08/18 11:20:06;;;;;;;3.60;1.58;;;21.60;70.70;;;;;;5073328;28;20143;-35
2023/08/18 11:22:33;;;;;;;2.33;1.60;;;21.90;85.10;;;;;;5073538;28;20132;-37
2023/08/18 11:25:03;;;;;;;2.10;1.60;;;21.90;72.60;;;;;;5073398;28;20516;-41
2023/08/18 11:27:30;;;;;;;4.38;1.52;;;22.50;85.30;;;;;;5073484;28;20114;-37
2023/08/18 11:29:56;;;;;;;4.47;1.60;;;21.20;81.80;;;;;;5053368;28;20463;-37
2023/08/18 11:32:23;;;;;;;3.97;1.80;;;;;;;;;;5068318;28;20076;-33
2023/08/18 11:34:50;;;;;;;2.58;1.60;;;21.70;76.50;;;;;;5072449;28;20564;-37
2023/08/18 11:37:21;;;;;;;4.20;1.90;;;21.70;68.90;;;;;;5072783;28;20044;-33
2023/08/18 11:39:48;;;;;;;2.88;1.67;;;22.50;71.60;;;;;;5073289;28;20140;-33
2023/08/18 11:42:17;;;;;;;3.25;1.70;;;21.40;85.50;;;;;;5072928;28;20049;-30
2023/08/18 11:44:44;;;;;;;4.07;1.80;;;23.10;79.50;;;;;;5070433;28;20044;-35
2023/08/18 11:47:12;;;;;;;3.45;1.80;;;;;;;;;;5070461;28;20113;-37
2023/08/18 11:49:38;;;;;;;3.25;1.85;;;22.90;85.70;;;;;;5053319;28;20468;-40
2023/08/18 11:52:06;;;;;;;3.75;1.70;;;21.60;68.90;;;;;;5052609;28;20120;-38
2023/08/18 11:54:33;;;;;;;2.33;1.65;;;21.80;76.00;;;;;;5053253;28;20084;-36
2023/08/18 11:57:00;;;;;;;2.38;1.67;;;;;;;;;;5053116;28;20124;-35
2023/08/18 11:59:28;;;;;;;2.67;1.80;;;22.00;74.80;;;;;;5051401;28;20135;-32
2023/08/18 12:01:55;;;;;;;2.65;1.80;;;22.00;68.10;;;;;;5056156;28;20091;-33
2023/08/18 12:04:24;;;;;;;6.68;1.95;;;22.90;76.30;;;;;;5052328;28;20128;-32
2023/08/18 12:06:51;;;;;;;2.17;1.63;;;;;;;;;;5052970;28;20514;-31
2023/08/18 12:09:18;;;;;;;2.72;1.73;;;21.90;69.40;;;;;;5052178;28;20083;-37
2023/08/18 12:11:45;;;;;;;2.28;1.60;;;21.80;74.10;;;;;;5053589;28;20049;-31
2023/08/18 12:14:12;;;;;;;3.30;2.10;;;;;;;;;;5052646;28;20128;-35
2023/08/18 12:16:41;;;;;;;2.78;1.95;;;22.30;84.80;;;;;;5059205;28;20140;-37
2023/08/18 12:19:08;;;;;;;2.53;1.95;;;;;;;;;;5058503;28;20056;-36
2023/08/18 12:21:36;;;;;;;5.15;1.63;;;22.10;68.50;;;;;;5053060;28;20516;-34
2023/08/18 12:24:03;;;;;;;3.15;1.80;;;;;;;;;;5072305;28;20106;-35
2023/08/18 12:26:30;;;;;;;3.08;1.80;;;22.10;85.00;;;;;;5072532;28;20045;-38
2023/08/18 12:28:57;;;;;;;3.55;1.80;;;;;;;;;;5072137;28;20128;-35
2023/08/18 12:31:24;;;;;;;2.55;1.90;;;23.10;85.60;;;;;;5072222;28;20127;-31
2023/08/18 12:33:52;;;;;;;4.75;1.80;;;22.20;68.50;;;;;;5070270;28;20494;-35
2023/08/18 12:36:20;;;;;;;2.67;1.65;;;;;;;;;;5055843;28;20071;-36
2023/08/18 12:38:46;;;;;;;2.05;1.70;;;22.90;85.70;;;;;;5072161;28;20542;-31
2023/08/18 12:41:14;;;;;;;2.33;1.85;;;22.20;68.50;;;;;;5071768;28;20135;-36
2023/08/18 12:43:40;;;;;;;2.70;1.85;;;22.00;85.00;;;;;;5071852;28;20458;-30
2023/08/18 12:46:07;;;;;;;2.40;1.75;;;;;;;;;;5071834;28;20132;-34
2023/08/18 12:48:35;;;;;;;2.00;1.67;;;;;;;;;;5071908;28;20837;-34
2023/08/18 12:51:04;;;;;;;2.30;1.60;;;21.60;70.50;;;;;;5072007;28;20136;-33
2023/08/18 12:53:31;;;;;;;3.47;1.90;;;22.30;85.10;;;;;;5068180;28;20110;-30
2023/08/18 12:55:58;;;;;;;3.67;2.10;;;;;;;;;;5052030;28;20123;-37
2023/08/18 12:58:24;;;;;;;3.95;1.83;;;22.10;79.10;;;;;;5051681;28;20132;-30
2023/08/18 13:00:51;;;;;;;2.30;1.80;;;22.30;85.80;;;;;;5052826;28;20553;-30
2023/08/18 13:03:18;;;;;;;5.65;1.95;;;;;;;;;;5061318;28;20132;-34
2023/08/18 13:05:45;;;;;;;4.20;1.70;;;23.40;86.00;;;;;;5054276;28;20566;-31
2023/08/18 13:08:13;;;;;;;3.90;1.77;;;22.40;68.60;;;;;;5069663;28;20143;-35
2023/08/18 13:10:40;;;;;;;3.25;1.77;;;;;;;;;;5060641;28;20128;-35
2023/08/18 13:13:07;;;;;;;2.78;1.90;;;;;;;;;;5058550;28;20128;-35
2023/08/18 13:15:34;;;;;;;2.28;1.70;;;;;;;;;;5060817;28;20127;-37
2023/08/18 13:18:01;;;;;;;3.47;1.73;;;;;;;;;;5066240;28;20119;-39
2023/08/18 13:20:28;;;;;;;3.40;1.90;;;;;;;;;;5069322;28;20151;-36